Time;durP1;ratioP1;P1;durP2;ratioP2;P2;SDS_P1;SDS_P2;PMS_P1;PMS_P2;Temp;Humidity;BMP_temperature;BMP_pressure;BME280_temperature;BME280_humidity;BME280_pressure;Samples;Min_cycle;Max_cycle;Signal;HPM_P1;HPM_P2
2024/03/24 00:01:56;;;;;;;2.22;1.00;;;2.60;94.50;;;;;;5065272;28;20071;-66
2024/03/24 00:04:22;;;;;;;5.05;1.48;;;2.60;94.60;;;;;;5060838;28;20107;-66
2024/03/24 00:06:48;;;;;;;1.25;0.75;;;2.60;94.70;;;;;;5061760;28;20025;-66
2024/03/24 00:09:13;;;;;;;3.92;1.30;;;2.60;94.80;;;;;;5065086;28;20085;-66
2024/03/24 00:11:41;;;;;;;3.17;0.98;;;2.50;94.90;;;;;;5059501;28;20032;-66
2024/03/24 00:14:06;;;;;;;2.67;1.17;;;2.50;94.90;;;;;;5060259;28;20397;-67
2024/03/24 00:16:32;;;;;;;2.40;1.42;;;2.50;94.90;;;;;;5061284;28;20104;-66
2024/03/24 00:18:58;;;;;;;2.20;0.90;;;2.40;95.00;;;;;;5065005;28;20032;-65
2024/03/24 00:21:24;;;;;;;1.48;1.00;;;2.40;95.10;;;;;;5061463;28;20044;-66
2024/03/24 00:23:50;;;;;;;1.33;0.90;;;2.20;95.20;;;;;;5060423;28;20069;-66
2024/03/24 00:26:15;;;;;;;2.95;1.10;;;2.20;95.60;;;;;;5063209;28;20024;-66
2024/03/24 00:28:41;;;;;;;2.13;1.15;;;2.10;95.90;;;;;;5061762;28;20044;-67
2024/03/24 00:31:06;;;;;;;2.15;1.42;;;2.20;95.90;;;;;;5063768;28;20174;-66
2024/03/24 00:33:32;;;;;;;5.15;1.10;;;2.20;95.80;;;;;;5065780;28;20457;-66
2024/03/24 00:35:57;;;;;;;5.93;1.45;;;2.20;95.80;;;;;;5062940;28;20035;-66
2024/03/24 00:38:23;;;;;;;2.35;1.15;;;2.10;95.90;;;;;;5064380;28;20150;-66
2024/03/24 00:40:48;;;;;;;2.30;1.40;;;2.10;96.20;;;;;;5062301;28;20043;-66
2024/03/24 00:43:14;;;;;;;2.45;1.30;;;2.10;96.40;;;;;;5058720;28;20044;-66
2024/03/24 00:45:40;;;;;;;2.70;1.20;;;2.20;96.30;;;;;;5057960;28;20036;-66
2024/03/24 00:48:06;;;;;;;5.63;1.38;;;2.10;96.30;;;;;;5064197;28;20341;-66
2024/03/24 00:50:31;;;;;;;2.97;1.50;;;2.20;96.40;;;;;;5063464;28;20032;-66
2024/03/24 00:52:58;;;;;;;4.53;1.65;;;2.20;96.40;;;;;;5064766;28;20055;-66
2024/03/24 00:55:24;;;;;;;0.98;0.85;;;2.20;96.30;;;;;;5063277;28;20436;-66
2024/03/24 00:57:51;;;;;;;3.20;1.40;;;2.20;96.30;;;;;;5060800;28;20138;-66
2024/03/24 01:00:16;;;;;;;5.88;1.40;;;2.20;96.30;;;;;;5057217;28;20040;-65
2024/03/24 01:02:42;;;;;;;2.47;1.38;;;2.30;96.30;;;;;;5061430;28;20365;-66
2024/03/24 01:05:07;;;;;;;2.38;1.63;;;2.20;96.40;;;;;;5061803;28;20078;-66
2024/03/24 01:07:33;;;;;;;2.65;1.40;;;2.10;96.40;;;;;;5061867;28;20121;-66
2024/03/24 01:09:58;;;;;;;3.20;1.77;;;2.10;96.60;;;;;;5057075;28;20334;-66
2024/03/24 01:12:24;;;;;;;3.20;1.77;;;2.20;96.60;;;;;;5053127;28;20170;-66
2024/03/24 01:14:50;;;;;;;3.50;1.60;;;2.10;96.50;;;;;;5061355;28;20635;-66
2024/03/24 01:17:16;;;;;;;4.15;1.65;;;2.10;96.70;;;;;;5064787;28;20041;-66
2024/03/24 01:19:42;;;;;;;3.05;1.50;;;2.10;96.60;;;;;;5061114;28;20044;-66
2024/03/24 01:22:07;;;;;;;5.13;2.00;;;2.10;96.70;;;;;;5060086;28;20035;-66
2024/03/24 01:24:33;;;;;;;3.47;1.73;;;2.10;96.90;;;;;;5054283;28;20040;-66
2024/03/24 01:26:58;;;;;;;3.10;1.42;;;2.20;96.80;;;;;;5060776;28;20168;-66
2024/03/24 01:29:24;;;;;;;2.63;1.77;;;2.20;96.80;;;;;;5059555;28;20029;-66
2024/03/24 01:31:49;;;;;;;3.60;1.95;;;2.20;96.80;;;;;;5065052;28;20602;-66
2024/03/24 01:34:15;;;;;;;3.17;2.00;;;2.30;96.60;;;;;;5067859;28;20048;-66
2024/03/24 01:36:40;;;;;;;3.97;2.17;;;2.30;96.60;;;;;;5063579;28;20052;-66
2024/03/24 01:39:06;;;;;;;4.82;2.40;;;2.40;96.50;;;;;;5063323;28;20044;-67
2024/03/24 01:41:31;;;;;;;3.53;2.20;;;2.40;96.50;;;;;;5063022;28;20052;-66
2024/03/24 01:43:57;;;;;;;3.90;2.35;;;2.50;96.50;;;;;;5069251;28;20040;-66
2024/03/24 01:46:23;;;;;;;3.35;2.13;;;2.60;96.50;;;;;;5065894;28;20153;-67
2024/03/24 01:48:49;;;;;;;3.10;1.77;;;2.60;96.50;;;;;;5068107;28;20101;-66
2024/03/24 01:51:17;;;;;;;4.45;2.65;;;2.60;96.40;;;;;;5065680;28;20037;-66
2024/03/24 01:53:43;;;;;;;5.38;2.50;;;2.70;96.30;;;;;;5059002;28;20146;-66
2024/03/24 01:56:09;;;;;;;2.03;1.02;;;2.70;96.20;;;;;;5060496;28;20135;-66
2024/03/24 01:58:35;;;;;;;4.40;2.25;;;2.80;96.10;;;;;;5063134;28;20353;-66
2024/03/24 02:01:02;;;;;;;5.07;2.40;;;2.90;95.80;;;;;;5066692;28;20179;-67
2024/03/24 02:03:28;;;;;;;4.00;2.10;;;2.90;95.90;;;;;;5062153;28;20033;-67
2024/03/24 02:05:54;;;;;;;3.30;1.50;;;2.90;95.80;;;;;;5067333;28;20128;-67
2024/03/24 02:08:19;;;;;;;5.50;2.45;;;2.90;95.90;;;;;;5062370;28;20053;-70
2024/03/24 02:10:45;;;;;;;2.78;1.88;;;2.90;95.80;;;;;;5064070;28;20056;-66
2024/03/24 02:13:10;;;;;;;3.53;2.25;;;2.90;95.80;;;;;;5063232;28;20451;-66
2024/03/24 02:15:36;;;;;;;7.47;2.55;;;2.90;96.00;;;;;;5060229;28;20388;-66
2024/03/24 02:18:01;;;;;;;4.47;2.38;;;3.00;95.90;;;;;;5063476;28;20028;-66
2024/03/24 02:20:27;;;;;;;4.18;1.85;;;3.00;96.00;;;;;;5062739;28;20437;-66
2024/03/24 02:22:53;;;;;;;3.40;1.73;;;3.00;96.10;;;;;;5063077;28;20131;-66
2024/03/24 02:25:18;;;;;;;5.55;1.88;;;3.00;96.00;;;;;;5066188;28;20024;-66
2024/03/24 02:27:44;;;;;;;5.50;1.90;;;3.00;96.20;;;;;;5064652;28;20137;-65
2024/03/24 02:30:10;;;;;;;4.43;2.00;;;3.00;96.30;;;;;;5063813;28;20032;-66
2024/03/24 02:32:37;;;;;;;3.95;1.90;;;3.00;96.40;;;;;;5066018;28;20032;-66
2024/03/24 02:35:03;;;;;;;4.15;2.45;;;3.00;96.40;;;;;;5061803;28;20047;-66
2024/03/24 02:37:29;;;;;;;6.55;2.65;;;2.90;96.50;;;;;;5064399;28;20138;-67
2024/03/24 02:39:54;;;;;;;5.60;2.58;;;2.90;96.50;;;;;;5057979;28;20068;-66
2024/03/24 02:42:20;;;;;;;6.18;2.10;;;2.90;96.50;;;;;;5062357;28;20060;-66
2024/03/24 02:44:45;;;;;;;4.25;2.33;;;2.90;96.70;;;;;;5065091;28;20112;-67
2024/03/24 02:47:11;;;;;;;3.95;2.15;;;2.90;96.70;;;;;;5063103;28;20094;-67
2024/03/24 02:49:36;;;;;;;4.85;2.22;;;2.90;96.70;;;;;;5066676;28;20115;-66
2024/03/24 02:52:02;;;;;;;5.72;2.28;;;2.90;96.70;;;;;;5061833;28;20025;-66
2024/03/24 02:54:27;;;;;;;4.82;2.58;;;2.90;96.60;;;;;;5062815;28;20065;-66
2024/03/24 02:56:53;;;;;;;3.95;1.85;;;2.90;96.70;;;;;;5059720;28;20075;-66
2024/03/24 02:59:18;;;;;;;5.47;2.67;;;2.90;96.70;;;;;;5062471;28;20037;-66
2024/03/24 03:01:44;;;;;;;4.97;2.95;;;2.90;96.60;;;;;;5052099;28;20039;-66
2024/03/24 03:04:09;;;;;;;7.38;2.92;;;2.90;96.30;;;;;;5059483;28;20040;-66
2024/03/24 03:06:35;;;;;;;4.57;2.97;;;2.90;96.30;;;;;;5061986;28;20114;-66
2024/03/24 03:09:05;;;;;;;5.93;2.58;;;2.80;96.40;;;;;;5052573;28;20078;-66
2024/03/24 03:11:33;;;;;;;6.55;3.53;;;2.80;96.50;;;;;;5054003;28;20034;-66
2024/03/24 03:13:58;;;;;;;6.30;3.58;;;2.70;96.60;;;;;;5061876;28;20500;-66
2024/03/24 03:16:24;;;;;;;6.00;2.95;;;2.80;96.60;;;;;;5060810;28;20036;-66
2024/03/24 03:18:49;;;;;;;8.35;4.15;;;2.80;96.50;;;;;;5062191;28;20088;-66
2024/03/24 03:21:14;;;;;;;7.63;4.03;;;2.80;96.20;;;;;;5061581;28;20029;-66
2024/03/24 03:23:40;;;;;;;10.43;4.68;;;2.90;96.20;;;;;;5060315;28;20043;-66
2024/03/24 03:26:06;;;;;;;7.95;4.35;;;2.90;96.40;;;;;;5063399;28;20028;-66
2024/03/24 03:28:32;;;;;;;6.38;3.65;;;2.90;96.00;;;;;;5062907;28;20434;-66
2024/03/24 03:30:57;;;;;;;10.82;5.10;;;3.00;96.10;;;;;;5062630;28;20039;-67
2024/03/24 03:33:23;;;;;;;9.02;4.47;;;3.00;96.20;;;;;;5060854;28;20040;-66
2024/03/24 03:35:48;;;;;;;8.55;4.45;;;3.00;96.00;;;;;;5061878;28;20035;-66
2024/03/24 03:38:14;;;;;;;8.98;5.10;;;3.00;96.10;;;;;;5058707;28;20141;-66
2024/03/24 03:40:39;;;;;;;8.88;4.82;;;3.00;95.90;;;;;;5059424;28;20040;-66
2024/03/24 03:43:05;;;;;;;12.60;5.22;;;3.10;95.90;;;;;;5063357;28;20060;-65
2024/03/24 03:45:30;;;;;;;8.98;5.50;;;3.10;95.80;;;;;;5062945;28;20065;-66
2024/03/24 03:47:56;;;;;;;7.68;4.30;;;3.10;95.90;;;;;;5060037;28;20048;-66
2024/03/24 03:50:23;;;;;;;9.68;5.20;;;3.10;96.10;;;;;;5073664;28;20037;-66
2024/03/24 03:52:49;;;;;;;11.05;5.63;;;3.10;95.80;;;;;;5060430;28;20028;-67
2024/03/24 03:55:15;;;;;;;10.52;5.70;;;3.10;95.80;;;;;;5064173;28;20028;-66
2024/03/24 03:57:41;;;;;;;9.65;5.15;;;3.10;96.20;;;;;;5062485;28;20036;-66
2024/03/24 04:00:10;;;;;;;8.88;4.90;;;3.10;96.10;;;;;;5061560;28;20414;-67
2024/03/24 04:02:41;;;;;;;10.40;5.97;;;3.10;96.20;;;;;;5064581;28;20024;-66
2024/03/24 04:05:09;;;;;;;8.85;5.25;;;3.00;96.40;;;;;;5064794;28;20119;-66
2024/03/24 04:07:39;;;;;;;11.23;5.40;;;3.10;96.30;;;;;;5061722;28;20124;-66
2024/03/24 04:10:06;;;;;;;10.85;5.60;;;3.00;96.30;;;;;;5060581;28;20135;-66
2024/03/24 04:12:32;;;;;;;9.45;5.63;;;3.00;96.20;;;;;;5068717;28;20361;-66
2024/03/24 04:15:01;;;;;;;11.95;5.70;;;3.00;96.30;;;;;;5062909;28;20079;-66
2024/03/24 04:17:30;;;;;;;10.77;6.07;;;3.00;96.20;;;;;;5064484;28;20369;-65
2024/03/24 04:19:56;;;;;;;10.85;6.15;;;3.10;96.10;;;;;;5057934;28;20473;-65
2024/03/24 04:22:22;;;;;;;11.52;5.85;;;3.10;96.00;;;;;;5063318;28;20024;-66
2024/03/24 04:24:49;;;;;;;10.35;6.05;;;3.10;95.80;;;;;;5061632;28;20033;-66
2024/03/24 04:27:15;;;;;;;12.05;6.60;;;3.20;95.60;;;;;;5064150;28;20048;-66
2024/03/24 04:29:41;;;;;;;9.32;5.60;;;3.20;95.50;;;;;;5061254;28;21451;-66
2024/03/24 04:32:07;;;;;;;12.45;6.95;;;3.20;95.50;;;;;;5058840;28;20025;-64
2024/03/24 04:34:32;;;;;;;10.43;6.53;;;3.20;95.60;;;;;;5062434;28;20425;-64
2024/03/24 04:36:59;;;;;;;10.90;6.13;;;3.20;95.50;;;;;;5058512;28;20025;-64
2024/03/24 04:39:25;;;;;;;9.48;6.38;;;3.30;95.50;;;;;;5056474;28;20140;-64
2024/03/24 04:41:50;;;;;;;11.65;6.78;;;3.30;95.40;;;;;;5061711;28;20088;-65
2024/03/24 04:44:16;;;;;;;11.45;6.63;;;3.30;95.30;;;;;;5059355;28;20044;-64
2024/03/24 04:46:42;;;;;;;12.52;7.22;;;3.40;95.30;;;;;;5058668;28;20036;-65
2024/03/24 04:49:07;;;;;;;12.00;7.15;;;3.40;95.20;;;;;;5061849;28;20099;-64
2024/03/24 04:51:33;;;;;;;11.18;6.55;;;3.40;95.30;;;;;;5064713;28;20052;-64
2024/03/24 04:53:58;;;;;;;10.40;6.45;;;3.40;95.40;;;;;;5058807;28;20202;-64
2024/03/24 04:56:24;;;;;;;9.38;6.00;;;3.40;94.90;;;;;;5060074;28;20036;-64
2024/03/24 04:58:50;;;;;;;13.15;6.88;;;;;;;;;;5066057;28;20424;-64
2024/03/24 05:01:17;;;;;;;9.18;5.95;;;3.40;95.20;;;;;;5059138;28;20032;-64
2024/03/24 05:03:42;;;;;;;10.30;5.90;;;3.40;95.30;;;;;;5054494;28;20033;-65
2024/03/24 05:06:09;;;;;;;12.65;6.88;;;3.40;95.20;;;;;;5065782;28;20106;-63
2024/03/24 05:08:36;;;;;;;9.85;5.70;;;3.40;95.20;;;;;;5067694;28;20052;-64
2024/03/24 05:11:09;;;;;;;8.60;5.85;;;3.50;95.20;;;;;;5064006;28;20028;-65
2024/03/24 05:13:35;;;;;;;11.25;6.55;;;;;;;;;;5065392;28;20535;-64
2024/03/24 05:16:01;;;;;;;11.00;5.65;;;3.40;95.40;;;;;;5069558;28;20028;-65
2024/03/24 05:18:26;;;;;;;9.15;5.15;;;3.40;95.40;;;;;;5069142;28;20024;-64
2024/03/24 05:20:52;;;;;;;8.32;5.03;;;3.50;95.30;;;;;;5065124;28;20073;-64
2024/03/24 05:23:19;;;;;;;9.38;6.18;;;3.50;95.30;;;;;;5063632;28;20072;-65
2024/03/24 05:25:52;;;;;;;8.95;5.80;;;3.50;95.20;;;;;;5064285;28;20058;-65
2024/03/24 05:28:18;;;;;;;9.02;5.28;;;3.50;95.40;;;;;;5064891;28;20335;-64
2024/03/24 05:30:44;;;;;;;8.45;5.55;;;3.50;95.40;;;;;;5063538;28;20131;-64
2024/03/24 05:33:09;;;;;;;8.27;4.82;;;3.50;95.50;;;;;;5063403;28;20131;-64
2024/03/24 05:35:35;;;;;;;9.35;5.32;;;3.50;95.80;;;;;;5067280;28;20326;-64
2024/03/24 05:38:00;;;;;;;10.32;5.43;;;3.50;96.00;;;;;;5064434;28;20119;-64
2024/03/24 05:40:26;;;;;;;8.75;4.78;;;3.40;95.90;;;;;;5066007;28;20040;-65
2024/03/24 05:42:51;;;;;;;8.40;4.95;;;3.50;96.10;;;;;;5064783;28;20161;-64
2024/03/24 05:45:17;;;;;;;7.75;4.80;;;3.40;96.40;;;;;;5066903;28;20039;-63
2024/03/24 05:47:43;;;;;;;7.18;3.75;;;3.40;96.40;;;;;;5066694;28;20106;-64
2024/03/24 05:50:09;;;;;;;6.30;3.83;;;3.50;96.10;;;;;;5055638;28;20159;-65
2024/03/24 05:52:36;;;;;;;4.72;2.97;;;3.40;96.20;;;;;;5067208;28;20485;-64
2024/03/24 05:55:04;;;;;;;6.15;3.55;;;3.40;96.30;;;;;;5061858;28;20410;-65
2024/03/24 05:57:30;;;;;;;6.50;3.45;;;3.50;96.10;;;;;;5065733;28;20043;-64
2024/03/24 05:59:56;;;;;;;4.22;2.63;;;3.40;96.20;;;;;;5061209;28;20186;-64
2024/03/24 06:02:21;;;;;;;3.67;2.33;;;3.40;96.30;;;;;;5066782;28;20028;-64
2024/03/24 06:04:47;;;;;;;3.88;2.50;;;3.40;96.30;;;;;;5063454;28;20037;-64
2024/03/24 06:07:12;;;;;;;4.57;2.38;;;3.30;96.40;;;;;;5067525;28;20174;-64
2024/03/24 06:09:38;;;;;;;4.20;2.85;;;3.40;96.50;;;;;;5066067;28;20363;-63
2024/03/24 06:12:04;;;;;;;4.78;2.70;;;3.30;96.70;;;;;;5064257;28;20075;-64
2024/03/24 06:14:30;;;;;;;4.03;2.42;;;3.30;96.40;;;;;;5062949;28;20025;-64
2024/03/24 06:16:56;;;;;;;3.95;1.83;;;3.30;96.40;;;;;;5062689;28;20097;-63
2024/03/24 06:19:22;;;;;;;3.25;1.92;;;3.20;96.30;;;;;;5062306;28;20425;-63
2024/03/24 06:21:49;;;;;;;2.03;1.48;;;3.10;96.30;;;;;;5062816;28;20060;-63
2024/03/24 06:24:15;;;;;;;3.70;1.98;;;;;;;;;;5064954;28;20032;-63
2024/03/24 06:26:40;;;;;;;3.42;1.70;;;3.10;96.30;;;;;;5064774;28;20017;-64
2024/03/24 06:29:05;;;;;;;3.40;1.98;;;3.10;96.20;;;;;;5065037;28;20422;-63
2024/03/24 06:31:31;;;;;;;2.72;1.70;;;3.10;96.40;;;;;;5066605;28;20024;-63
2024/03/24 06:33:59;;;;;;;3.28;1.90;;;3.10;96.50;;;;;;5062053;28;20106;-63
2024/03/24 06:36:24;;;;;;;3.50;2.10;;;3.00;96.60;;;;;;5063998;28;20032;-62
2024/03/24 06:38:50;;;;;;;2.28;1.52;;;3.10;96.70;;;;;;5055744;28;20314;-65
2024/03/24 06:41:15;;;;;;;4.20;2.42;;;3.00;96.80;;;;;;5061065;28;20073;-63
2024/03/24 06:43:44;;;;;;;3.30;1.95;;;3.00;97.00;;;;;;5060063;28;20049;-64
2024/03/24 06:46:10;;;;;;;3.83;2.25;;;3.00;97.20;;;;;;5060890;28;20060;-63
2024/03/24 06:48:36;;;;;;;4.47;2.45;;;3.00;97.40;;;;;;5062657;28;20461;-63
2024/03/24 06:51:02;;;;;;;3.05;1.90;;;3.00;97.50;;;;;;5060035;28;20036;-63
2024/03/24 06:53:27;;;;;;;2.40;1.50;;;3.00;97.70;;;;;;5067549;28;20441;-63
2024/03/24 06:55:53;;;;;;;3.42;1.85;;;3.00;97.80;;;;;;5062563;28;20497;-63
2024/03/24 06:58:18;;;;;;;3.20;1.90;;;3.00;98.00;;;;;;5066057;28;20516;-63
2024/03/24 07:00:44;;;;;;;3.58;2.17;;;3.00;98.20;;;;;;5053796;28;20095;-65
2024/03/24 07:03:10;;;;;;;2.95;1.88;;;3.00;98.30;;;;;;5060992;28;20468;-62
2024/03/24 07:05:35;;;;;;;3.70;2.22;;;3.00;98.40;;;;;;5060248;28;20100;-63
2024/03/24 07:08:01;;;;;;;4.53;2.00;;;3.00;98.50;;;;;;5059665;28;20151;-63
2024/03/24 07:10:26;;;;;;;5.10;2.25;;;3.10;98.50;;;;;;5057413;28;20544;-64
2024/03/24 07:12:52;;;;;;;3.28;2.15;;;3.10;98.60;;;;;;5060931;28;20028;-63
2024/03/24 07:15:18;;;;;;;4.15;2.60;;;3.10;98.60;;;;;;5061530;28;20354;-63
2024/03/24 07:17:43;;;;;;;4.70;2.40;;;3.20;98.60;;;;;;5064142;28;20035;-65
2024/03/24 07:20:09;;;;;;;3.95;2.28;;;3.20;98.50;;;;;;5063648;28;20032;-63
2024/03/24 07:22:34;;;;;;;3.50;1.90;;;3.20;98.50;;;;;;5060424;28;20115;-63
2024/03/24 07:25:00;;;;;;;6.55;3.05;;;3.30;98.50;;;;;;5063023;28;20047;-63
2024/03/24 07:27:25;;;;;;;4.10;2.30;;;3.40;98.50;;;;;;5063714;28;20045;-63
2024/03/24 07:29:51;;;;;;;4.25;2.45;;;3.30;98.30;;;;;;5061434;28;20025;-63
2024/03/24 07:32:16;;;;;;;4.38;2.45;;;3.40;98.30;;;;;;5065849;28;20033;-64
2024/03/24 07:34:42;;;;;;;4.20;2.67;;;3.40;98.40;;;;;;5064785;28;20097;-63
2024/03/24 07:37:08;;;;;;;4.22;2.67;;;3.40;98.30;;;;;;5061010;28;20033;-63
2024/03/24 07:39:34;;;;;;;3.65;2.25;;;3.50;98.40;;;;;;5053597;28;20040;-63
2024/03/24 07:41:59;;;;;;;4.18;2.67;;;3.60;98.40;;;;;;5057778;28;20028;-63
2024/03/24 07:44:25;;;;;;;4.72;2.58;;;3.60;98.20;;;;;;5061418;28;20029;-64
2024/03/24 07:46:50;;;;;;;4.35;2.60;;;3.70;98.10;;;;;;5062876;28;20036;-63
2024/03/24 07:49:16;;;;;;;4.38;2.45;;;3.70;98.00;;;;;;5055786;28;20044;-63
2024/03/24 07:51:41;;;;;;;4.85;2.72;;;3.90;98.00;;;;;;5058590;28;20075;-64
2024/03/24 07:54:08;;;;;;;5.97;3.03;;;;;;;;;;5063458;28;20589;-63
2024/03/24 07:56:34;;;;;;;4.70;2.65;;;4.00;97.90;;;;;;5063188;28;20048;-63
2024/03/24 07:58:59;;;;;;;5.78;3.03;;;4.00;97.70;;;;;;5065949;28;20048;-64
2024/03/24 08:01:25;;;;;;;5.45;3.05;;;4.10;97.60;;;;;;5060226;28;20036;-63
2024/03/24 08:03:50;;;;;;;6.50;2.97;;;4.20;97.70;;;;;;5064943;28;20044;-63
2024/03/24 08:06:16;;;;;;;5.75;2.97;;;4.20;97.60;;;;;;5060156;28;20372;-63
2024/03/24 08:08:41;;;;;;;6.60;3.08;;;4.20;97.60;;;;;;5053919;28;20052;-64
2024/03/24 08:11:07;;;;;;;4.97;2.85;;;4.20;97.40;;;;;;5059021;28;20051;-64
2024/03/24 08:13:32;;;;;;;5.95;2.58;;;4.30;97.20;;;;;;5062044;28;20076;-63
2024/03/24 08:15:57;;;;;;;6.07;2.92;;;4.40;97.20;;;;;;5065699;28;20044;-63
2024/03/24 08:18:23;;;;;;;4.68;2.80;;;4.40;97.00;;;;;;5066140;28;20032;-64
2024/03/24 08:20:48;;;;;;;5.32;2.67;;;4.50;97.00;;;;;;5063197;28;20123;-63
2024/03/24 08:23:15;;;;;;;6.25;2.97;;;4.60;97.00;;;;;;5064672;28;20140;-63
2024/03/24 08:25:42;;;;;;;4.88;2.65;;;4.60;96.90;;;;;;5067206;28;20063;-64
2024/03/24 08:28:07;;;;;;;4.78;2.90;;;4.60;96.80;;;;;;5065202;28;20036;-63
2024/03/24 08:30:33;;;;;;;5.50;3.13;;;4.60;96.20;;;;;;5059904;28;20118;-63
2024/03/24 08:32:58;;;;;;;6.55;3.10;;;4.60;96.30;;;;;;5065459;28;20123;-67
2024/03/24 08:35:24;;;;;;;4.82;2.60;;;4.60;96.20;;;;;;5062154;28;20044;-64
2024/03/24 08:37:51;;;;;;;4.50;2.80;;;4.80;96.50;;;;;;5062618;28;20126;-64
2024/03/24 08:40:16;;;;;;;4.47;2.58;;;4.90;96.40;;;;;;5055015;28;20127;-64
2024/03/24 08:42:42;;;;;;;4.90;2.40;;;4.90;96.00;;;;;;5061142;28;20433;-63
2024/03/24 08:45:07;;;;;;;4.63;2.78;;;4.90;95.80;;;;;;5065029;28;20024;-64
2024/03/24 08:47:34;;;;;;;4.25;2.38;;;5.00;96.00;;;;;;5066713;28;20577;-63
2024/03/24 08:49:59;;;;;;;6.65;2.95;;;5.00;95.70;;;;;;5061969;28;20024;-63
2024/03/24 08:52:25;;;;;;;4.78;2.65;;;5.00;95.70;;;;;;5062210;28;20445;-63
2024/03/24 08:54:51;;;;;;;5.38;2.58;;;5.10;95.80;;;;;;5061960;28;20428;-65
2024/03/24 08:57:16;;;;;;;3.67;2.47;;;5.00;95.20;;;;;;5060416;28;20472;-63
2024/03/24 08:59:42;;;;;;;3.72;2.38;;;5.00;95.20;;;;;;5062878;28;20051;-63
2024/03/24 09:02:07;;;;;;;4.68;2.17;;;5.10;95.20;;;;;;5065037;28;20461;-62
2024/03/24 09:04:32;;;;;;;3.83;2.25;;;5.20;94.80;;;;;;5056296;28;20111;-63
2024/03/24 09:06:58;;;;;;;5.50;3.03;;;5.40;94.40;;;;;;5055138;28;20449;-64
2024/03/24 09:09:23;;;;;;;5.22;2.85;;;5.50;94.10;;;;;;5060044;28;20049;-64
2024/03/24 09:11:49;;;;;;;4.13;2.33;;;5.60;93.90;;;;;;5060177;28;20059;-65
2024/03/24 09:14:15;;;;;;;4.03;2.25;;;5.50;92.90;;;;;;5063123;28;20037;-64
2024/03/24 09:16:40;;;;;;;4.47;2.40;;;5.50;93.20;;;;;;5062753;28;20127;-65
2024/03/24 09:19:06;;;;;;;4.38;2.17;;;5.40;93.50;;;;;;5058152;28;20205;-63
2024/03/24 09:21:31;;;;;;;2.90;1.83;;;5.40;93.90;;;;;;5060520;28;20040;-64
2024/03/24 09:23:57;;;;;;;4.15;2.10;;;5.40;93.80;;;;;;5058052;28;20329;-63
2024/03/24 09:26:24;;;;;;;3.42;2.00;;;5.30;94.00;;;;;;5060426;28;20444;-64
2024/03/24 09:28:49;;;;;;;3.50;1.90;;;5.40;94.20;;;;;;5062549;28;20124;-63
2024/03/24 09:31:14;;;;;;;4.03;2.10;;;5.40;94.40;;;;;;5062623;28;20098;-63
2024/03/24 09:33:40;;;;;;;3.95;1.80;;;5.40;94.40;;;;;;5061240;28;20041;-63
2024/03/24 09:36:06;;;;;;;3.42;1.83;;;5.60;94.50;;;;;;5062012;28;20393;-63
2024/03/24 09:38:31;;;;;;;4.32;2.00;;;5.60;93.80;;;;;;5061014;28;20556;-64
2024/03/24 09:40:56;;;;;;;2.42;1.60;;;5.60;93.60;;;;;;5059286;28;20032;-65
2024/03/24 09:43:22;;;;;;;3.05;1.25;;;5.70;93.90;;;;;;5062782;28;20066;-64
2024/03/24 09:45:49;;;;;;;2.63;1.55;;;5.60;93.60;;;;;;5064606;28;20084;-64
2024/03/24 09:48:16;;;;;;;2.20;1.20;;;5.60;93.60;;;;;;5063432;28;20044;-64
2024/03/24 09:50:42;;;;;;;2.30;1.38;;;5.80;94.00;;;;;;5061072;28;20167;-65
2024/03/24 09:53:09;;;;;;;2.15;1.30;;;5.90;94.00;;;;;;5065474;28;20934;-64
2024/03/24 09:55:35;;;;;;;2.90;1.30;;;5.90;92.80;;;;;;5062457;28;20028;-65
2024/03/24 09:58:01;;;;;;;1.52;1.10;;;6.00;93.40;;;;;;5066366;28;20092;-66
2024/03/24 10:00:27;;;;;;;3.35;1.67;;;5.90;93.10;;;;;;5063594;28;20151;-65
2024/03/24 10:02:53;;;;;;;3.08;1.50;;;5.90;93.00;;;;;;5067675;28;20174;-65
2024/03/24 10:05:20;;;;;;;2.92;1.48;;;5.70;93.10;;;;;;5067484;28;20021;-65
2024/03/24 10:07:47;;;;;;;1.73;0.80;;;5.70;93.20;;;;;;5056948;28;20101;-65
2024/03/24 10:10:14;;;;;;;3.42;1.27;;;5.70;92.80;;;;;;5064893;28;20028;-64
2024/03/24 10:12:51;;;;;;;1.25;0.93;;;5.80;92.40;;;;;;5061720;28;20021;-65
2024/03/24 10:15:25;;;;;;;5.95;1.88;;;6.10;92.80;;;;;;5060660;28;20123;-65
2024/03/24 10:18:11;;;;;;;13.10;3.17;;;6.50;93.10;;;;;;5065230;28;20101;-66
2024/03/24 10:20:38;;;;;;;14.57;5.18;;;6.70;92.00;;;;;;5056123;28;20059;-65
2024/03/24 10:23:04;;;;;;;6.35;2.83;;;6.60;91.50;;;;;;5063392;28;20299;-65
2024/03/24 10:25:31;;;;;;;2.78;1.30;;;6.60;91.70;;;;;;5056101;28;20029;-64
2024/03/24 10:28:01;;;;;;;1.63;1.25;;;6.50;91.00;;;;;;5067053;28;20118;-63
2024/03/24 10:30:26;;;;;;;1.17;0.88;;;6.60;91.00;;;;;;5065472;28;20099;-63
2024/03/24 10:32:52;;;;;;;2.63;1.15;;;6.50;90.60;;;;;;5064579;28;20089;-65
2024/03/24 10:35:20;;;;;;;1.80;0.93;;;6.40;90.70;;;;;;5067679;28;20075;-63
2024/03/24 10:37:45;;;;;;;1.38;0.73;;;6.30;91.80;;;;;;5065475;28;20043;-65
2024/03/24 10:40:14;;;;;;;1.42;0.90;;;6.30;91.30;;;;;;5060906;28;20108;-64
2024/03/24 10:42:53;;;;;;;1.48;0.90;;;6.40;91.70;;;;;;5060683;28;20089;-63
2024/03/24 10:45:24;;;;;;;2.60;0.70;;;6.20;91.50;;;;;;5068810;28;20033;-63
2024/03/24 10:48:03;;;;;;;1.13;0.60;;;6.20;91.60;;;;;;5064862;28;20371;-63
2024/03/24 10:50:29;;;;;;;0.93;0.60;;;6.20;91.50;;;;;;5065264;28;20025;-64
2024/03/24 10:52:59;;;;;;;1.92;0.80;;;6.20;91.50;;;;;;5055848;28;20051;-64
2024/03/24 10:55:26;;;;;;;1.30;0.88;;;6.40;91.30;;;;;;5076142;28;20452;-65
2024/03/24 10:57:53;;;;;;;1.75;1.00;;;6.80;91.20;;;;;;5060817;28;20033;-64
2024/03/24 11:00:19;;;;;;;1.48;0.70;;;7.00;89.80;;;;;;5064413;28;20024;-63
2024/03/24 11:02:45;;;;;;;0.90;0.80;;;7.10;89.60;;;;;;5062916;28;20025;-65
2024/03/24 11:05:10;;;;;;;1.55;0.70;;;6.90;88.70;;;;;;5063321;28;20225;-63
2024/03/24 11:07:39;;;;;;;0.80;0.70;;;6.80;89.10;;;;;;5062227;28;20147;-64
2024/03/24 11:10:05;;;;;;;3.13;0.80;;;6.80;88.80;;;;;;5063501;28;20028;-64
2024/03/24 11:12:34;;;;;;;3.95;0.73;;;7.00;89.60;;;;;;5057942;28;20036;-63
2024/03/24 11:14:59;;;;;;;0.90;0.60;;;7.10;89.00;;;;;;5061007;28;20025;-63
2024/03/24 11:17:25;;;;;;;1.08;0.75;;;7.20;88.60;;;;;;5058543;28;20039;-63
2024/03/24 11:19:51;;;;;;;1.08;0.65;;;7.30;88.30;;;;;;5063158;28;20479;-65
2024/03/24 11:22:35;;;;;;;1.27;0.70;;;7.20;87.70;;;;;;5063793;28;20135;-63
2024/03/24 11:25:05;;;;;;;1.15;0.77;;;7.30;88.20;;;;;;5060955;28;20063;-64
2024/03/24 11:27:30;;;;;;;0.75;0.60;;;7.30;88.00;;;;;;5052816;28;20629;-63
2024/03/24 11:29:58;;;;;;;1.15;0.80;;;7.10;88.50;;;;;;5060394;28;20166;-63
2024/03/24 11:32:54;;;;;;;2.38;0.85;;;6.70;89.70;;;;;;5063267;28;20092;-63
2024/03/24 11:35:25;;;;;;;0.55;0.50;;;6.40;92.50;;;;;;5063332;28;20031;-66
2024/03/24 11:37:51;;;;;;;0.70;0.60;;;6.40;93.60;;;;;;5061508;28;20118;-65
2024/03/24 11:40:19;;;;;;;0.77;0.60;;;6.30;93.60;;;;;;5064995;28;20087;-65
2024/03/24 11:42:45;;;;;;;0.82;0.45;;;6.50;93.00;;;;;;5059268;28;20143;-64
2024/03/24 11:45:26;;;;;;;0.43;0.40;;;6.50;91.70;;;;;;5058895;28;20067;-64
2024/03/24 11:47:52;;;;;;;0.88;0.40;;;6.60;91.10;;;;;;5063498;28;20150;-64
2024/03/24 11:50:18;;;;;;;1.23;0.40;;;6.80;90.70;;;;;;5066153;28;20032;-64
2024/03/24 11:52:46;;;;;;;0.35;0.30;;;6.90;90.60;;;;;;5054539;28;20036;-66
2024/03/24 11:55:14;;;;;;;0.45;0.40;;;6.80;89.90;;;;;;5064200;28;20151;-65
2024/03/24 11:57:39;;;;;;;0.40;0.40;;;6.90;90.30;;;;;;5062222;28;20036;-66
2024/03/24 12:00:06;;;;;;;0.75;0.55;;;6.90;88.90;;;;;;5061998;28;20341;-64
2024/03/24 12:02:32;;;;;;;2.17;0.47;;;;;;;;;;5064084;28;20032;-63
2024/03/24 12:04:57;;;;;;;2.13;0.50;;;6.70;88.80;;;;;;5065799;28;20017;-65
2024/03/24 12:07:23;;;;;;;0.47;0.47;;;6.60;89.20;;;;;;5061423;28;20060;-65
2024/03/24 12:09:48;;;;;;;0.45;0.40;;;6.60;89.90;;;;;;5062143;28;20036;-64
2024/03/24 12:12:14;;;;;;;0.77;0.50;;;6.40;89.70;;;;;;5063189;28;20088;-64
2024/03/24 12:14:39;;;;;;;0.93;0.43;;;6.30;91.10;;;;;;5064422;28;20032;-64
2024/03/24 12:17:07;;;;;;;0.47;0.47;;;6.20;92.70;;;;;;5064673;28;20031;-64
2024/03/24 12:19:32;;;;;;;0.40;0.40;;;6.10;93.50;;;;;;5062315;28;20027;-64
2024/03/24 12:21:59;;;;;;;2.40;0.77;;;5.90;93.60;;;;;;5064234;28;20045;-64
2024/03/24 12:24:25;;;;;;;0.63;0.40;;;5.80;94.80;;;;;;5063709;28;20111;-64
2024/03/24 12:26:53;;;;;;;0.50;0.50;;;5.70;95.00;;;;;;5060580;28;20033;-64
2024/03/24 12:29:18;;;;;;;1.52;1.00;;;5.70;95.40;;;;;;5063433;28;20037;-64
2024/03/24 12:31:50;;;;;;;1.08;0.60;;;5.80;95.50;;;;;;5059249;28;20056;-64
2024/03/24 12:34:18;;;;;;;0.50;0.38;;;6.00;95.00;;;;;;5062648;28;20024;-66
2024/03/24 12:36:43;;;;;;;1.80;0.60;;;6.10;95.60;;;;;;5062640;28;20064;-67
2024/03/24 12:39:12;;;;;;;1.02;0.60;;;6.20;95.60;;;;;;5058735;28;20068;-68
2024/03/24 12:41:38;;;;;;;0.47;0.47;;;6.20;95.00;;;;;;5063317;28;20025;-71
2024/03/24 12:44:04;;;;;;;1.30;0.70;;;6.40;95.30;;;;;;5065858;28;20051;-68
2024/03/24 12:46:34;;;;;;;1.00;0.47;;;6.40;94.50;;;;;;5065927;28;20052;-68
2024/03/24 12:49:13;;;;;;;0.80;0.43;;;6.50;94.10;;;;;;5065873;28;20029;-68
2024/03/24 12:51:39;;;;;;;1.10;0.40;;;6.40;93.60;;;;;;5063648;28;20129;-69
2024/03/24 12:54:12;;;;;;;1.17;0.80;;;6.40;93.80;;;;;;5061162;28;20162;-68